createdAt,value
2023-03-22T00:01:21.003Z,61.55
2023-03-22T00:03:49.959Z,59.52
2023-03-22T00:06:17.040Z,58.87
2023-03-22T00:08:45.621Z,58.66
2023-03-22T00:11:13.313Z,58.64
2023-03-22T00:13:43.195Z,57.00
2023-03-22T00:16:11.306Z,56.80
2023-03-22T00:18:38.603Z,56.30
2023-03-22T00:21:06.337Z,57.17
2023-03-22T00:23:33.341Z,57.05
2023-03-22T00:26:00.444Z,57.73
2023-03-22T00:28:27.586Z,58.67
2023-03-22T00:30:57.857Z,64.96
2023-03-22T00:33:26.172Z,65.76
2023-03-22T00:35:57.838Z,63.80
2023-03-22T00:38:41.172Z,65.41
2023-03-22T00:41:17.998Z,64.70
2023-03-22T00:43:47.714Z,63.34
2023-03-22T00:46:17.285Z,62.46
2023-03-22T00:48:46.686Z,61.44
2023-03-22T00:51:14.549Z,60.80
2023-03-22T00:53:43.527Z,62.58
2023-03-22T00:56:16.065Z,61.86
2023-03-22T00:58:44.005Z,61.50
2023-03-22T01:01:14.525Z,61.45
2023-03-22T01:03:43.326Z,59.97
2023-03-22T01:06:11.708Z,60.16
2023-03-22T01:08:39.384Z,61.05
2023-03-22T01:11:08.508Z,61.55
2023-03-22T01:13:42.013Z,60.02
2023-03-22T01:16:10.445Z,59.23
2023-03-22T01:18:37.886Z,58.95
2023-03-22T01:21:05.642Z,58.05
2023-03-22T01:23:33.155Z,57.77
2023-03-22T01:26:00.394Z,57.27
2023-03-22T01:28:27.974Z,56.31
2023-03-22T01:30:57.002Z,56.61
2023-03-22T01:33:24.143Z,58.74
2023-03-22T01:35:52.078Z,60.67
2023-03-22T01:38:19.211Z,61.54
2023-03-22T01:40:46.224Z,59.10
2023-03-22T01:43:15.940Z,59.21
2023-03-22T01:45:51.147Z,59.70
2023-03-22T01:48:46.415Z,60.93
2023-03-22T01:51:22.460Z,60.43
2023-03-22T01:53:55.034Z,60.63
2023-03-22T01:56:25.873Z,60.47
2023-03-22T01:58:55.468Z,61.61
2023-03-22T02:01:24.003Z,61.17
2023-03-22T02:04:08.572Z,61.72
2023-03-22T02:06:40.642Z,61.13
2023-03-22T02:09:12.871Z,59.45
2023-03-22T02:11:46.695Z,60.51
2023-03-22T02:14:28.510Z,59.29
2023-03-22T02:17:09.367Z,59.49
2023-03-22T02:19:54.636Z,60.10
2023-03-22T02:22:53.253Z,60.21
2023-03-22T02:25:42.187Z,60.47
2023-03-22T02:28:25.335Z,61.24
2023-03-22T02:31:20.001Z,60.25
2023-03-22T02:34:14.937Z,60.25
2023-03-22T02:37:00.731Z,61.23
2023-03-22T02:39:56.169Z,60.90
2023-03-22T02:42:33.657Z,60.18
2023-03-22T02:45:16.825Z,59.38
2023-03-22T02:47:55.396Z,58.84
2023-03-22T02:50:30.115Z,61.77
2023-03-22T02:53:10.232Z,61.76
2023-03-22T02:55:54.944Z,60.82
2023-03-22T02:58:47.172Z,59.34
2023-03-22T03:01:31.349Z,61.59
2023-03-22T03:04:05.187Z,61.46
2023-03-22T03:06:39.203Z,62.43
2023-03-22T03:09:07.471Z,61.66
2023-03-22T03:11:34.838Z,60.75
2023-03-22T03:14:02.308Z,59.50
2023-03-22T03:16:35.138Z,59.86
2023-03-22T03:19:24.392Z,69.10
2023-03-22T03:22:11.237Z,69.72
2023-03-22T03:24:57.727Z,66.56
2023-03-22T03:27:41.629Z,65.14
2023-03-22T03:30:20.639Z,65.00
2023-03-22T03:32:50.565Z,63.00
2023-03-22T03:35:27.749Z,62.60
2023-03-22T03:37:59.742Z,62.28
2023-03-22T03:40:33.850Z,61.88
2023-03-22T03:43:04.509Z,62.01
2023-03-22T03:45:32.884Z,62.57
2023-03-22T03:48:04.820Z,61.63
2023-03-22T03:50:32.157Z,64.79
2023-03-22T03:52:59.960Z,64.09
2023-03-22T03:55:29.043Z,63.21
2023-03-22T03:57:56.136Z,64.50
2023-03-22T04:00:23.349Z,64.04
2023-03-22T04:02:50.506Z,64.47
2023-03-22T04:05:17.621Z,64.11
2023-03-22T04:07:45.740Z,64.33
2023-03-22T04:10:12.705Z,66.19
2023-03-22T04:12:40.789Z,66.64
2023-03-22T04:15:08.461Z,69.61
2023-03-22T04:17:35.614Z,70.87
2023-03-22T04:20:05.851Z,69.73
2023-03-22T04:22:35.422Z,71.43
2023-03-22T04:25:02.751Z,74.31
2023-03-22T04:27:29.674Z,72.48
2023-03-22T04:29:56.617Z,72.40
2023-03-22T04:32:23.643Z,71.21
2023-03-22T04:34:51.792Z,70.27
2023-03-22T04:37:20.075Z,71.33
2023-03-22T04:39:47.078Z,70.23
2023-03-22T04:42:14.090Z,69.96
2023-03-22T04:44:41.206Z,68.24
2023-03-22T04:47:08.163Z,70.16
2023-03-22T04:49:35.535Z,70.20
2023-03-22T04:52:02.513Z,69.57
2023-03-22T04:54:29.712Z,69.95
2023-03-22T04:56:56.729Z,68.54
2023-03-22T04:59:24.183Z,67.49
2023-03-22T05:01:52.111Z,65.97
2023-03-22T05:04:19.905Z,64.81
2023-03-22T05:06:47.426Z,63.87
2023-03-22T05:09:15.014Z,64.56
2023-03-22T05:11:42.200Z,65.22
2023-03-22T05:14:09.778Z,64.26
2023-03-22T05:16:37.443Z,65.62
2023-03-22T05:19:04.434Z,65.01
2023-03-22T05:21:37.177Z,69.20
2023-03-22T05:24:04.382Z,67.63
2023-03-22T05:26:31.498Z,68.51
2023-03-22T05:28:58.595Z,68.41
2023-03-22T05:31:28.902Z,67.98
2023-03-22T05:33:56.149Z,68.56
2023-03-22T05:36:23.271Z,67.77
2023-03-22T05:38:50.558Z,67.58
2023-03-22T05:41:17.804Z,68.25
2023-03-22T05:43:44.872Z,68.27
2023-03-22T05:46:12.546Z,67.98
2023-03-22T05:48:40.708Z,68.88
2023-03-22T05:51:09.407Z,68.76
2023-03-22T05:53:36.700Z,66.83
2023-03-22T05:56:03.848Z,68.43
2023-03-22T05:58:32.363Z,67.55
2023-03-22T06:01:04.422Z,67.62
2023-03-22T06:03:31.498Z,67.63
2023-03-22T06:05:58.714Z,68.57
2023-03-22T06:08:26.676Z,69.59
2023-03-22T06:10:54.976Z,68.64
2023-03-22T06:13:22.349Z,70.40
2023-03-22T06:15:49.711Z,70.69
2023-03-22T06:18:16.845Z,71.30
2023-03-22T06:20:44.349Z,70.66
2023-03-22T06:23:11.490Z,70.45
2023-03-22T06:25:38.745Z,70.32
2023-03-22T06:28:08.536Z,70.06
2023-03-22T06:30:36.019Z,70.00
2023-03-22T06:33:05.781Z,70.38
2023-03-22T06:35:33.562Z,70.91
2023-03-22T06:38:01.431Z,71.02
2023-03-22T06:40:29.094Z,70.10
2023-03-22T06:42:56.089Z,70.10
2023-03-22T06:45:23.366Z,69.08
2023-03-22T06:47:51.016Z,69.08
2023-03-22T06:50:18.267Z,68.16
2023-03-22T06:52:46.188Z,68.15
2023-03-22T06:55:13.512Z,69.00
2023-03-22T06:57:40.665Z,69.16
2023-03-22T07:00:11.441Z,67.62
2023-03-22T07:02:38.492Z,66.83
2023-03-22T07:05:06.073Z,66.04
2023-03-22T07:07:33.349Z,66.35
2023-03-22T07:10:02.916Z,64.33
2023-03-22T07:12:30.542Z,63.42
2023-03-22T07:14:57.674Z,63.92
2023-03-22T07:17:25.763Z,64.66
2023-03-22T07:19:53.403Z,65.45
2023-03-22T07:22:23.569Z,66.91
2023-03-22T07:24:57.197Z,66.46
2023-03-22T07:27:28.397Z,65.58
2023-03-22T07:29:55.565Z,64.67
2023-03-22T07:32:22.769Z,63.15
2023-03-22T07:34:49.881Z,62.38
2023-03-22T07:37:19.312Z,61.24
2023-03-22T07:39:46.289Z,61.15
2023-03-22T07:42:13.765Z,61.21
2023-03-22T07:44:40.824Z,60.48
2023-03-22T07:47:07.768Z,59.70
2023-03-22T07:49:36.953Z,60.01
2023-03-22T07:52:04.284Z,59.24
2023-03-22T07:54:34.613Z,59.34
2023-03-22T07:57:02.455Z,59.82
2023-03-22T07:59:29.632Z,59.34
2023-03-22T08:01:58.882Z,57.77
2023-03-22T08:04:26.452Z,59.40
2023-03-22T08:06:55.134Z,60.08
2023-03-22T08:09:22.208Z,58.60
2023-03-22T08:11:49.278Z,57.77
2023-03-22T08:14:27.419Z,58.05
2023-03-22T08:17:04.413Z,57.40
2023-03-22T08:19:34.362Z,56.58
2023-03-22T08:22:02.151Z,55.52
2023-03-22T08:24:31.747Z,58.86
2023-03-22T08:26:59.158Z,55.68
2023-03-22T08:29:28.273Z,54.34
2023-03-22T08:31:58.785Z,55.74
2023-03-22T08:34:26.418Z,52.97
2023-03-22T08:36:53.728Z,57.56
2023-03-22T08:39:22.255Z,55.32
2023-03-22T08:41:51.690Z,54.31
2023-03-22T08:44:18.862Z,56.42
2023-03-22T08:46:47.813Z,54.92
2023-03-22T08:49:15.292Z,56.10
2023-03-22T08:51:44.390Z,55.27
2023-03-22T08:54:12.748Z,57.35
2023-03-22T08:56:40.344Z,53.69
2023-03-22T08:59:09.075Z,54.21
2023-03-22T09:01:37.676Z,53.69
2023-03-22T09:04:06.223Z,52.93
2023-03-22T09:06:34.710Z,50.79
2023-03-22T09:09:01.849Z,50.71
2023-03-22T09:11:29.043Z,48.74
2023-03-22T09:13:58.294Z,47.53
2023-03-22T09:16:25.757Z,45.51
2023-03-22T09:18:52.991Z,45.60
2023-03-22T09:21:20.061Z,47.10
2023-03-22T09:23:48.193Z,47.88
2023-03-22T09:26:15.312Z,47.96
2023-03-22T09:28:44.648Z,47.20
2023-03-22T09:31:14.470Z,43.98
2023-03-22T09:33:42.062Z,44.98
2023-03-22T09:36:10.160Z,44.19
2023-03-22T09:38:37.396Z,44.87
2023-03-22T09:41:16.565Z,42.81
2023-03-22T09:43:52.017Z,43.90
2023-03-22T09:46:34.714Z,43.37
2023-03-22T09:49:06.555Z,43.06
2023-03-22T09:51:41.662Z,43.78
2023-03-22T09:54:21.851Z,42.30
2023-03-22T09:57:02.514Z,39.86
2023-03-22T09:59:59.183Z,39.02
2023-03-22T10:02:40.499Z,40.00
2023-03-22T10:05:28.729Z,38.09
2023-03-22T10:08:20.288Z,40.02
2023-03-22T10:10:47.532Z,40.87
2023-03-22T10:13:36.352Z,44.40
2023-03-22T10:16:07.344Z,41.21
2023-03-22T10:18:47.641Z,38.18
2023-03-22T10:21:18.233Z,38.41
2023-03-22T10:23:59.195Z,37.90
2023-03-22T10:26:34.668Z,34.43
2023-03-22T10:29:17.730Z,33.52
2023-03-22T10:31:50.106Z,33.69
2023-03-22T10:34:25.407Z,33.29
2023-03-22T10:36:55.430Z,35.69
2023-03-22T10:39:38.633Z,34.73
2023-03-22T10:42:14.375Z,33.95
2023-03-22T10:44:51.042Z,34.47
2023-03-22T10:47:32.264Z,33.73
2023-03-22T10:50:03.944Z,33.37
2023-03-22T10:52:39.529Z,33.80
2023-03-22T10:55:15.207Z,34.54
2023-03-22T10:58:19.296Z,34.87
2023-03-22T11:00:49.474Z,33.23
2023-03-22T11:03:38.797Z,33.02
2023-03-22T11:06:13.723Z,32.89
2023-03-22T11:08:56.468Z,32.92
2023-03-22T11:11:31.098Z,30.97
2023-03-22T11:14:23.920Z,33.06
2023-03-22T11:16:59.715Z,32.07
2023-03-22T11:19:35.530Z,32.51
2023-03-22T11:22:06.313Z,32.62
2023-03-22T11:24:34.789Z,32.29
2023-03-22T11:27:08.129Z,30.14
2023-03-22T11:29:48.431Z,31.40
2023-03-22T11:32:30.019Z,30.37
2023-03-22T11:35:25.854Z,29.64
2023-03-22T11:37:55.238Z,31.74
2023-03-22T11:40:28.536Z,31.53
2023-03-22T11:43:16.974Z,31.34
2023-03-22T11:45:51.049Z,33.04
2023-03-22T11:48:31.173Z,30.22
2023-03-22T11:51:12.715Z,32.15
2023-03-22T11:53:43.842Z,29.96
2023-03-22T11:56:17.712Z,29.19
2023-03-22T11:58:47.740Z,29.58
2023-03-22T12:01:39.117Z,30.35
2023-03-22T12:04:11.545Z,31.79
2023-03-22T12:07:07.893Z,32.93
2023-03-22T12:09:41.668Z,31.89
2023-03-22T12:12:20.037Z,32.92
2023-03-22T12:15:06.595Z,33.55
2023-03-22T12:17:49.779Z,33.04
2023-03-22T12:20:54.035Z,31.33
2023-03-22T12:23:24.524Z,32.20
2023-03-22T12:26:07.181Z,31.84
2023-03-22T12:28:38.803Z,31.68
2023-03-22T12:31:31.134Z,31.85
2023-03-22T12:34:10.821Z,32.74
2023-03-22T12:36:48.305Z,30.50
2023-03-22T12:39:47.290Z,30.98
2023-03-22T12:42:35.004Z,28.71
2023-03-22T12:45:31.983Z,32.64
2023-03-22T12:48:11.311Z,32.46
2023-03-22T12:50:59.270Z,32.85
2023-03-22T12:53:31.318Z,33.73
2023-03-22T12:56:02.290Z,29.98
2023-03-22T12:58:29.561Z,33.57
2023-03-22T13:01:02.431Z,33.49
2023-03-22T13:03:50.622Z,32.20
2023-03-22T13:06:55.864Z,30.79
2023-03-22T13:09:29.154Z,29.11
2023-03-22T13:12:17.744Z,28.75
2023-03-22T13:14:56.374Z,29.90
2023-03-22T13:17:25.642Z,32.03
2023-03-22T13:19:54.772Z,34.39
2023-03-22T13:22:52.287Z,33.87
2023-03-22T13:25:19.756Z,31.97
2023-03-22T13:27:46.665Z,31.95
2023-03-22T13:30:49.628Z,30.44
2023-03-22T13:33:33.770Z,30.74
2023-03-22T13:36:26.101Z,30.38
2023-03-22T13:39:07.359Z,29.26
2023-03-22T13:41:35.347Z,30.81
2023-03-22T13:44:21.167Z,29.83
2023-03-22T13:46:53.833Z,28.62
2023-03-22T13:49:31.456Z,28.84
2023-03-22T13:52:01.398Z,29.18
2023-03-22T13:54:48.633Z,28.21
2023-03-22T13:57:59.399Z,27.93
2023-03-22T14:00:32.490Z,30.66
2023-03-22T14:03:12.005Z,31.60
2023-03-22T14:05:41.746Z,34.13
2023-03-22T14:08:21.414Z,33.49
2023-03-22T14:10:58.566Z,32.06
2023-03-22T14:13:46.796Z,31.37
2023-03-22T14:16:22.110Z,32.14
2023-03-22T14:18:50.312Z,30.67
2023-03-22T14:21:22.931Z,30.66
